• location
  • image
mod_vvisit_countermod_vvisit_countermod_vvisit_countermod_vvisit_countermod_vvisit_countermod_vvisit_counter
mod_vvisit_counterToday12
mod_vvisit_counterYesterday640
mod_vvisit_counterThis week12
mod_vvisit_counterLast week4178
mod_vvisit_counterThis month6095
mod_vvisit_counterLast month17439
mod_vvisit_counterAll days504881

We have: 9 guests, 1 bots online
Your IP: 54.204.108.121
 , 
Today: Dec 11, 2016
Airport

AP V2 EN

 

 

You can watch a film about services of Siauliai International Airport

Today

Sunday, 11 December 2016

Weather Forecast

Siauliai °C
   

Aviation Weather Forecast

[source: ADDS]
METAR
EYSA 102150Z 22005KT CAVOK M03/M04 Q1010 R14L/29//95 R14R/29//95 BLU NOSIG =
TAF
TAF EYSA 102000Z 1021/1106 VRB04KT 5000 BR OVC020 TEMPO 1021/1024 SN SCT005 BKN015 BECMG 1103/1104 10014KT 3000 SN OVC005 TEMPO 1104/1106 1500 =
SR / SS: 06:43 / 13:59 UTC (EYSA 2016-12-11)

Search

Who's Online

We have 10 guests online

tic logo en